sensor_id;sensor_type;location;lat;lon;timestamp;temperature;humidity
7159;DHT22;63175;52.374;13.132;2022-12-22T00:02:27;7.50;99.90
7159;DHT22;63175;52.374;13.132;2022-12-22T00:05:13;7.40;99.90
7159;DHT22;63175;52.374;13.132;2022-12-22T00:07:58;7.40;99.90
7159;DHT22;63175;52.374;13.132;2022-12-22T00:10:42;7.40;99.90
7159;DHT22;63175;52.374;13.132;2022-12-22T00:13:27;7.40;99.90
7159;DHT22;63175;52.374;13.132;2022-12-22T00:16:11;7.30;99.90
7159;DHT22;63175;52.374;13.132;2022-12-22T00:18:56;7.30;99.90
7159;DHT22;63175;52.374;13.132;2022-12-22T00:21:41;7.30;99.90
7159;DHT22;63175;52.374;13.132;2022-12-22T00:24:25;7.30;99.90
7159;DHT22;63175;52.374;13.132;2022-12-22T00:27:12;7.20;99.90
7159;DHT22;63175;52.374;13.132;2022-12-22T00:29:58;7.30;99.90
7159;DHT22;63175;52.374;13.132;2022-12-22T00:32:42;7.20;99.90
7159;DHT22;63175;52.374;13.132;2022-12-22T00:35:28;7.20;99.90
7159;DHT22;63175;52.374;13.132;2022-12-22T00:38:14;7.20;99.90
7159;DHT22;63175;52.374;13.132;2022-12-22T00:40:59;7.20;99.90
7159;DHT22;63175;52.374;13.132;2022-12-22T00:43:43;7.20;99.90
7159;DHT22;63175;52.374;13.132;2022-12-22T00:46:28;7.20;99.90
7159;DHT22;63175;52.374;13.132;2022-12-22T00:49:12;7.30;99.90
7159;DHT22;63175;52.374;13.132;2022-12-22T00:51:59;7.30;99.90
7159;DHT22;63175;52.374;13.132;2022-12-22T00:54:43;7.30;99.90
7159;DHT22;63175;52.374;13.132;2022-12-22T00:57:27;7.30;99.90
7159;DHT22;63175;52.374;13.132;2022-12-22T01:00:15;7.30;99.90
7159;DHT22;63175;52.374;13.132;2022-12-22T01:03:00;7.30;99.90
7159;DHT22;63175;52.374;13.132;2022-12-22T01:05:44;7.30;99.90
7159;DHT22;63175;52.374;13.132;2022-12-22T01:08:31;7.30;99.90
7159;DHT22;63175;52.374;13.132;2022-12-22T01:11:16;7.30;99.90
7159;DHT22;63175;52.374;13.132;2022-12-22T01:14:00;7.30;99.90
7159;DHT22;63175;52.374;13.132;2022-12-22T01:16:44;7.30;99.90
7159;DHT22;63175;52.374;13.132;2022-12-22T01:19:28;7.30;99.90
7159;DHT22;63175;52.374;13.132;2022-12-22T01:22:16;7.30;99.90
7159;DHT22;63175;52.374;13.132;2022-12-22T01:25:08;7.30;99.90
7159;DHT22;63175;52.374;13.132;2022-12-22T01:27:54;7.30;99.90
7159;DHT22;63175;52.374;13.132;2022-12-22T01:30:38;7.30;99.90
7159;DHT22;63175;52.374;13.132;2022-12-22T01:33:22;7.20;99.90
7159;DHT22;63175;52.374;13.132;2022-12-22T01:36:06;7.20;99.90
7159;DHT22;63175;52.374;13.132;2022-12-22T01:38:51;7.20;99.90
7159;DHT22;63175;52.374;13.132;2022-12-22T01:41:36;7.20;99.90
7159;DHT22;63175;52.374;13.132;2022-12-22T01:44:21;7.20;99.90
7159;DHT22;63175;52.374;13.132;2022-12-22T01:47:31;7.20;99.90
7159;DHT22;63175;52.374;13.132;2022-12-22T01:50:18;7.20;99.90
7159;DHT22;63175;52.374;13.132;2022-12-22T01:53:07;7.20;99.90
7159;DHT22;63175;52.374;13.132;2022-12-22T01:55:53;7.20;99.90
7159;DHT22;63175;52.374;13.132;2022-12-22T01:58:43;7.20;99.90
7159;DHT22;63175;52.374;13.132;2022-12-22T02:01:29;7.20;99.90
7159;DHT22;63175;52.374;13.132;2022-12-22T02:04:14;7.10;99.90
7159;DHT22;63175;52.374;13.132;2022-12-22T02:07:05;7.10;99.90
7159;DHT22;63175;52.374;13.132;2022-12-22T02:09:58;7.10;99.90
7159;DHT22;63175;52.374;13.132;2022-12-22T02:12:53;7.10;99.90
7159;DHT22;63175;52.374;13.132;2022-12-22T02:15:44;7.10;99.90
7159;DHT22;63175;52.374;13.132;2022-12-22T02:18:33;7.10;99.90
7159;DHT22;63175;52.374;13.132;2022-12-22T02:21:23;7.10;99.90
7159;DHT22;63175;52.374;13.132;2022-12-22T02:24:18;7.10;99.90
7159;DHT22;63175;52.374;13.132;2022-12-22T02:27:07;7.10;99.90
7159;DHT22;63175;52.374;13.132;2022-12-22T02:29:56;7.10;99.90
7159;DHT22;63175;52.374;13.132;2022-12-22T02:32:43;7.10;99.90
7159;DHT22;63175;52.374;13.132;2022-12-22T02:35:33;7.10;99.90
7159;DHT22;63175;52.374;13.132;2022-12-22T02:38:28;7.10;99.90
7159;DHT22;63175;52.374;13.132;2022-12-22T02:41:23;7.10;99.90
7159;DHT22;63175;52.374;13.132;2022-12-22T02:44:18;7.10;99.90
7159;DHT22;63175;52.374;13.132;2022-12-22T02:47:08;7.10;99.90
7159;DHT22;63175;52.374;13.132;2022-12-22T02:49:59;7.10;99.90
7159;DHT22;63175;52.374;13.132;2022-12-22T02:52:46;7.10;99.90
7159;DHT22;63175;52.374;13.132;2022-12-22T02:55:31;7.10;99.90
7159;DHT22;63175;52.374;13.132;2022-12-22T02:58:17;7.00;99.90
7159;DHT22;63175;52.374;13.132;2022-12-22T03:01:03;7.10;99.90
7159;DHT22;63175;52.374;13.132;2022-12-22T03:03:48;7.00;99.90
7159;DHT22;63175;52.374;13.132;2022-12-22T03:06:33;7.00;99.90
7159;DHT22;63175;52.374;13.132;2022-12-22T03:09:17;7.10;99.90
7159;DHT22;63175;52.374;13.132;2022-12-22T03:12:01;7.10;99.90
7159;DHT22;63175;52.374;13.132;2022-12-22T03:14:46;7.10;99.90
7159;DHT22;63175;52.374;13.132;2022-12-22T03:17:31;7.00;99.90
7159;DHT22;63175;52.374;13.132;2022-12-22T03:20:15;7.10;99.90
7159;DHT22;63175;52.374;13.132;2022-12-22T03:23:03;7.10;99.90
7159;DHT22;63175;52.374;13.132;2022-12-22T03:25:47;7.10;99.90
7159;DHT22;63175;52.374;13.132;2022-12-22T03:28:19;7.10;99.90
7159;DHT22;63175;52.374;13.132;2022-12-22T03:30:52;7.10;99.90
7159;DHT22;63175;52.374;13.132;2022-12-22T03:33:21;7.10;99.90
7159;DHT22;63175;52.374;13.132;2022-12-22T03:35:48;7.10;99.90
7159;DHT22;63175;52.374;13.132;2022-12-22T03:38:15;7.10;99.90
7159;DHT22;63175;52.374;13.132;2022-12-22T03:40:42;7.10;99.90
7159;DHT22;63175;52.374;13.132;2022-12-22T03:43:10;7.10;99.90
7159;DHT22;63175;52.374;13.132;2022-12-22T03:45:55;7.20;99.90
7159;DHT22;63175;52.374;13.132;2022-12-22T03:48:49;7.20;99.90
7159;DHT22;63175;52.374;13.132;2022-12-22T03:51:30;7.20;99.90
7159;DHT22;63175;52.374;13.132;2022-12-22T03:53:57;7.20;99.90
7159;DHT22;63175;52.374;13.132;2022-12-22T03:56:24;7.20;99.90
7159;DHT22;63175;52.374;13.132;2022-12-22T03:58:51;7.20;99.90
7159;DHT22;63175;52.374;13.132;2022-12-22T04:01:18;7.20;99.90
7159;DHT22;63175;52.374;13.132;2022-12-22T04:03:45;7.10;99.90
7159;DHT22;63175;52.374;13.132;2022-12-22T04:06:13;7.20;99.90
7159;DHT22;63175;52.374;13.132;2022-12-22T04:08:40;7.10;99.90
7159;DHT22;63175;52.374;13.132;2022-12-22T04:11:08;7.10;99.90
7159;DHT22;63175;52.374;13.132;2022-12-22T04:13:52;7.20;99.90
7159;DHT22;63175;52.374;13.132;2022-12-22T04:16:19;7.20;99.90
7159;DHT22;63175;52.374;13.132;2022-12-22T04:18:46;7.20;99.90
7159;DHT22;63175;52.374;13.132;2022-12-22T04:21:14;7.20;99.90
7159;DHT22;63175;52.374;13.132;2022-12-22T04:23:41;7.20;99.90
7159;DHT22;63175;52.374;13.132;2022-12-22T04:26:08;7.20;99.90
7159;DHT22;63175;52.374;13.132;2022-12-22T04:28:35;7.20;99.90
7159;DHT22;63175;52.374;13.132;2022-12-22T04:31:02;7.20;99.90
7159;DHT22;63175;52.374;13.132;2022-12-22T04:33:29;7.20;99.90
7159;DHT22;63175;52.374;13.132;2022-12-22T04:35:57;7.20;99.90
7159;DHT22;63175;52.374;13.132;2022-12-22T04:38:25;7.20;99.90
7159;DHT22;63175;52.374;13.132;2022-12-22T04:40:52;7.30;99.90
7159;DHT22;63175;52.374;13.132;2022-12-22T04:43:19;7.30;99.90
7159;DHT22;63175;52.374;13.132;2022-12-22T04:45:45;7.30;99.90
7159;DHT22;63175;52.374;13.132;2022-12-22T04:48:12;7.30;99.90
7159;DHT22;63175;52.374;13.132;2022-12-22T04:50:39;7.30;99.90
7159;DHT22;63175;52.374;13.132;2022-12-22T04:53:06;7.30;99.90
7159;DHT22;63175;52.374;13.132;2022-12-22T04:55:34;7.40;99.90
7159;DHT22;63175;52.374;13.132;2022-12-22T04:58:01;7.40;99.90
7159;DHT22;63175;52.374;13.132;2022-12-22T05:00:28;7.40;99.90
7159;DHT22;63175;52.374;13.132;2022-12-22T05:02:55;7.40;99.90
7159;DHT22;63175;52.374;13.132;2022-12-22T05:05:22;7.40;99.90
7159;DHT22;63175;52.374;13.132;2022-12-22T05:07:49;7.40;99.90
7159;DHT22;63175;52.374;13.132;2022-12-22T05:10:16;7.40;99.90
7159;DHT22;63175;52.374;13.132;2022-12-22T05:12:44;7.40;99.90
7159;DHT22;63175;52.374;13.132;2022-12-22T05:15:20;7.40;99.90
7159;DHT22;63175;52.374;13.132;2022-12-22T05:17:47;7.40;99.90
7159;DHT22;63175;52.374;13.132;2022-12-22T05:20:14;7.40;99.90
7159;DHT22;63175;52.374;13.132;2022-12-22T05:22:41;7.40;99.90
7159;DHT22;63175;52.374;13.132;2022-12-22T05:25:08;7.40;99.90
7159;DHT22;63175;52.374;13.132;2022-12-22T05:27:36;7.40;99.90
7159;DHT22;63175;52.374;13.132;2022-12-22T05:30:05;7.40;99.90
7159;DHT22;63175;52.374;13.132;2022-12-22T05:32:32;7.40;99.90
7159;DHT22;63175;52.374;13.132;2022-12-22T05:35:00;7.40;99.90
7159;DHT22;63175;52.374;13.132;2022-12-22T05:37:26;7.40;99.90
7159;DHT22;63175;52.374;13.132;2022-12-22T05:39:54;7.40;99.90
7159;DHT22;63175;52.374;13.132;2022-12-22T05:42:21;7.40;99.90
7159;DHT22;63175;52.374;13.132;2022-12-22T05:45:05;7.40;99.90
7159;DHT22;63175;52.374;13.132;2022-12-22T05:47:32;7.40;99.90
7159;DHT22;63175;52.374;13.132;2022-12-22T05:49:59;7.40;99.90
7159;DHT22;63175;52.374;13.132;2022-12-22T05:52:26;7.50;99.90
7159;DHT22;63175;52.374;13.132;2022-12-22T05:54:53;7.50;99.90
7159;DHT22;63175;52.374;13.132;2022-12-22T05:57:21;7.50;99.90
7159;DHT22;63175;52.374;13.132;2022-12-22T05:59:48;7.50;99.90
7159;DHT22;63175;52.374;13.132;2022-12-22T06:02:16;7.50;99.90
7159;DHT22;63175;52.374;13.132;2022-12-22T06:04:43;7.50;99.90
7159;DHT22;63175;52.374;13.132;2022-12-22T06:07:10;7.50;99.90
7159;DHT22;63175;52.374;13.132;2022-12-22T06:09:36;7.50;99.90
7159;DHT22;63175;52.374;13.132;2022-12-22T06:12:04;7.50;99.90
7159;DHT22;63175;52.374;13.132;2022-12-22T06:14:31;7.50;99.90
7159;DHT22;63175;52.374;13.132;2022-12-22T06:16:58;7.50;99.90
7159;DHT22;63175;52.374;13.132;2022-12-22T06:19:26;7.50;99.90
7159;DHT22;63175;52.374;13.132;2022-12-22T06:21:53;7.50;99.90
7159;DHT22;63175;52.374;13.132;2022-12-22T06:24:20;7.50;99.90
7159;DHT22;63175;52.374;13.132;2022-12-22T06:26:47;7.50;99.90
7159;DHT22;63175;52.374;13.132;2022-12-22T06:29:14;7.50;99.90
7159;DHT22;63175;52.374;13.132;2022-12-22T06:31:41;7.50;99.90
7159;DHT22;63175;52.374;13.132;2022-12-22T06:34:08;7.50;99.90
7159;DHT22;63175;52.374;13.132;2022-12-22T06:36:36;7.50;99.90
7159;DHT22;63175;52.374;13.132;2022-12-22T06:39:04;7.50;99.90
7159;DHT22;63175;52.374;13.132;2022-12-22T06:41:31;7.50;99.90
7159;DHT22;63175;52.374;13.132;2022-12-22T06:44:15;7.60;99.90
7159;DHT22;63175;52.374;13.132;2022-12-22T06:46:42;7.60;99.90
7159;DHT22;63175;52.374;13.132;2022-12-22T06:49:09;7.60;99.90
7159;DHT22;63175;52.374;13.132;2022-12-22T06:51:37;7.60;99.90
7159;DHT22;63175;52.374;13.132;2022-12-22T06:54:04;7.60;99.90
7159;DHT22;63175;52.374;13.132;2022-12-22T06:56:31;7.60;99.90
7159;DHT22;63175;52.374;13.132;2022-12-22T06:58:58;7.60;99.90
7159;DHT22;63175;52.374;13.132;2022-12-22T07:01:25;7.60;99.90
7159;DHT22;63175;52.374;13.132;2022-12-22T07:03:52;7.60;99.90
7159;DHT22;63175;52.374;13.132;2022-12-22T07:06:19;7.60;99.90
7159;DHT22;63175;52.374;13.132;2022-12-22T07:08:47;7.70;99.90
7159;DHT22;63175;52.374;13.132;2022-12-22T07:11:15;7.60;99.90
7159;DHT22;63175;52.374;13.132;2022-12-22T07:13:42;7.70;99.90
7159;DHT22;63175;52.374;13.132;2022-12-22T07:16:10;7.70;99.90
7159;DHT22;63175;52.374;13.132;2022-12-22T07:18:38;7.70;99.90
7159;DHT22;63175;52.374;13.132;2022-12-22T07:21:07;7.70;99.90
7159;DHT22;63175;52.374;13.132;2022-12-22T07:23:35;7.70;99.90
7159;DHT22;63175;52.374;13.132;2022-12-22T07:26:04;7.70;99.90
7159;DHT22;63175;52.374;13.132;2022-12-22T07:28:32;7.70;99.90
7159;DHT22;63175;52.374;13.132;2022-12-22T07:30:59;7.70;99.90
7159;DHT22;63175;52.374;13.132;2022-12-22T07:33:26;7.70;99.90
7159;DHT22;63175;52.374;13.132;2022-12-22T07:36:01;7.70;99.90
7159;DHT22;63175;52.374;13.132;2022-12-22T07:38:30;7.70;99.90
7159;DHT22;63175;52.374;13.132;2022-12-22T07:40:57;7.70;99.90
7159;DHT22;63175;52.374;13.132;2022-12-22T07:43:26;7.70;99.90
7159;DHT22;63175;52.374;13.132;2022-12-22T07:45:52;7.70;99.90
7159;DHT22;63175;52.374;13.132;2022-12-22T07:48:18;7.70;99.90
7159;DHT22;63175;52.374;13.132;2022-12-22T07:51:04;7.80;99.90
7159;DHT22;63175;52.374;13.132;2022-12-22T07:53:32;7.80;99.90
7159;DHT22;63175;52.374;13.132;2022-12-22T07:56:01;7.80;99.90
7159;DHT22;63175;52.374;13.132;2022-12-22T07:58:30;7.80;99.90
7159;DHT22;63175;52.374;13.132;2022-12-22T08:00:58;7.80;99.90
7159;DHT22;63175;52.374;13.132;2022-12-22T08:03:25;7.80;99.90
7159;DHT22;63175;52.374;13.132;2022-12-22T08:05:52;7.80;99.90
7159;DHT22;63175;52.374;13.132;2022-12-22T08:08:19;7.80;99.90
7159;DHT22;63175;52.374;13.132;2022-12-22T08:10:45;7.80;99.90
7159;DHT22;63175;52.374;13.132;2022-12-22T08:13:13;7.80;99.90
7159;DHT22;63175;52.374;13.132;2022-12-22T08:15:41;7.90;99.90
7159;DHT22;63175;52.374;13.132;2022-12-22T08:18:08;7.80;99.90
7159;DHT22;63175;52.374;13.132;2022-12-22T08:20:35;7.90;99.90
7159;DHT22;63175;52.374;13.132;2022-12-22T08:23:01;7.90;99.90
7159;DHT22;63175;52.374;13.132;2022-12-22T08:25:29;7.90;99.90
7159;DHT22;63175;52.374;13.132;2022-12-22T08:27:57;7.90;99.90
7159;DHT22;63175;52.374;13.132;2022-12-22T08:30:25;7.90;99.90
7159;DHT22;63175;52.374;13.132;2022-12-22T08:32:53;7.90;99.90
7159;DHT22;63175;52.374;13.132;2022-12-22T08:35:20;7.90;99.90
7159;DHT22;63175;52.374;13.132;2022-12-22T08:37:47;7.90;99.90
7159;DHT22;63175;52.374;13.132;2022-12-22T08:40:18;8.00;99.90
7159;DHT22;63175;52.374;13.132;2022-12-22T08:42:46;7.90;99.90
7159;DHT22;63175;52.374;13.132;2022-12-22T08:45:14;7.90;99.90
7159;DHT22;63175;52.374;13.132;2022-12-22T08:47:41;8.00;99.90
7159;DHT22;63175;52.374;13.132;2022-12-22T08:50:10;8.00;99.90
7159;DHT22;63175;52.374;13.132;2022-12-22T08:52:37;8.00;99.90
7159;DHT22;63175;52.374;13.132;2022-12-22T08:55:05;8.00;99.90
7159;DHT22;63175;52.374;13.132;2022-12-22T08:57:32;8.00;99.90
7159;DHT22;63175;52.374;13.132;2022-12-22T08:59:59;8.00;99.90
7159;DHT22;63175;52.374;13.132;2022-12-22T09:02:26;8.00;99.90
7159;DHT22;63175;52.374;13.132;2022-12-22T09:04:53;8.00;99.90
7159;DHT22;63175;52.374;13.132;2022-12-22T09:07:21;8.00;99.90
7159;DHT22;63175;52.374;13.132;2022-12-22T09:09:48;8.00;99.90
7159;DHT22;63175;52.374;13.132;2022-12-22T09:12:15;8.00;99.90
7159;DHT22;63175;52.374;13.132;2022-12-22T09:14:42;8.00;99.90
7159;DHT22;63175;52.374;13.132;2022-12-22T09:17:09;8.10;99.90
7159;DHT22;63175;52.374;13.132;2022-12-22T09:19:36;8.00;99.90
7159;DHT22;63175;52.374;13.132;2022-12-22T09:22:03;8.00;99.90
7159;DHT22;63175;52.374;13.132;2022-12-22T09:24:31;8.10;99.90
7159;DHT22;63175;52.374;13.132;2022-12-22T09:26:58;8.10;99.90
7159;DHT22;63175;52.374;13.132;2022-12-22T09:29:28;8.10;99.90
7159;DHT22;63175;52.374;13.132;2022-12-22T09:31:54;8.10;99.90
7159;DHT22;63175;52.374;13.132;2022-12-22T09:34:21;8.10;99.90
7159;DHT22;63175;52.374;13.132;2022-12-22T09:36:48;8.10;99.90
7159;DHT22;63175;52.374;13.132;2022-12-22T09:39:15;8.10;99.90
7159;DHT22;63175;52.374;13.132;2022-12-22T09:41:46;8.10;99.90
7159;DHT22;63175;52.374;13.132;2022-12-22T09:44:21;8.10;99.90
7159;DHT22;63175;52.374;13.132;2022-12-22T09:46:49;8.10;99.90
7159;DHT22;63175;52.374;13.132;2022-12-22T09:49:17;8.10;99.90
7159;DHT22;63175;52.374;13.132;2022-12-22T09:51:49;8.10;99.90
7159;DHT22;63175;52.374;13.132;2022-12-22T09:54:16;8.10;99.90
7159;DHT22;63175;52.374;13.132;2022-12-22T09:56:44;8.10;99.90
7159;DHT22;63175;52.374;13.132;2022-12-22T09:59:12;8.10;99.90
7159;DHT22;63175;52.374;13.132;2022-12-22T10:02:02;8.20;99.90
7159;DHT22;63175;52.374;13.132;2022-12-22T10:04:44;8.20;99.90
7159;DHT22;63175;52.374;13.132;2022-12-22T10:07:21;8.20;99.90
7159;DHT22;63175;52.374;13.132;2022-12-22T10:09:50;8.20;99.90
7159;DHT22;63175;52.374;13.132;2022-12-22T10:12:20;8.20;99.90
7159;DHT22;63175;52.374;13.132;2022-12-22T10:14:49;8.20;99.90
7159;DHT22;63175;52.374;13.132;2022-12-22T10:17:19;8.20;99.90
7159;DHT22;63175;52.374;13.132;2022-12-22T10:19:47;8.20;99.90
7159;DHT22;63175;52.374;13.132;2022-12-22T10:22:33;8.20;99.90
7159;DHT22;63175;52.374;13.132;2022-12-22T10:25:02;8.20;99.90
7159;DHT22;63175;52.374;13.132;2022-12-22T10:27:33;8.20;99.90
7159;DHT22;63175;52.374;13.132;2022-12-22T10:30:19;8.30;99.90
7159;DHT22;63175;52.374;13.132;2022-12-22T10:33:01;8.30;99.90
7159;DHT22;63175;52.374;13.132;2022-12-22T10:35:41;8.30;99.90
7159;DHT22;63175;52.374;13.132;2022-12-22T10:38:14;8.30;99.90
7159;DHT22;63175;52.374;13.132;2022-12-22T10:40:45;8.30;99.90
7159;DHT22;63175;52.374;13.132;2022-12-22T10:43:19;8.40;99.90
7159;DHT22;63175;52.374;13.132;2022-12-22T10:45:47;8.40;99.90
7159;DHT22;63175;52.374;13.132;2022-12-22T10:48:15;8.40;99.90
7159;DHT22;63175;52.374;13.132;2022-12-22T10:50:45;8.40;99.90
7159;DHT22;63175;52.374;13.132;2022-12-22T10:53:14;8.40;99.90
7159;DHT22;63175;52.374;13.132;2022-12-22T10:55:41;8.50;99.90
7159;DHT22;63175;52.374;13.132;2022-12-22T10:58:17;8.50;99.90
7159;DHT22;63175;52.374;13.132;2022-12-22T11:01:00;8.50;99.90
7159;DHT22;63175;52.374;13.132;2022-12-22T11:03:31;8.50;99.90
7159;DHT22;63175;52.374;13.132;2022-12-22T11:05:59;8.50;99.90
7159;DHT22;63175;52.374;13.132;2022-12-22T11:08:26;8.60;99.90
7159;DHT22;63175;52.374;13.132;2022-12-22T11:10:58;8.60;99.90
7159;DHT22;63175;52.374;13.132;2022-12-22T11:13:46;8.60;99.90
7159;DHT22;63175;52.374;13.132;2022-12-22T11:16:22;8.60;99.90
7159;DHT22;63175;52.374;13.132;2022-12-22T11:19:02;8.60;99.90
7159;DHT22;63175;52.374;13.132;2022-12-22T11:21:35;8.70;99.90
7159;DHT22;63175;52.374;13.132;2022-12-22T11:24:16;8.70;99.90
7159;DHT22;63175;52.374;13.132;2022-12-22T11:26:55;8.70;99.90
7159;DHT22;63175;52.374;13.132;2022-12-22T11:29:40;8.70;99.90
7159;DHT22;63175;52.374;13.132;2022-12-22T11:32:25;8.80;99.90
7159;DHT22;63175;52.374;13.132;2022-12-22T11:34:59;8.80;99.90
7159;DHT22;63175;52.374;13.132;2022-12-22T11:37:36;8.80;99.90
7159;DHT22;63175;52.374;13.132;2022-12-22T11:40:13;8.80;99.90
7159;DHT22;63175;52.374;13.132;2022-12-22T11:42:58;8.80;99.90
7159;DHT22;63175;52.374;13.132;2022-12-22T11:45:49;8.80;99.90
7159;DHT22;63175;52.374;13.132;2022-12-22T11:48:40;8.80;99.90
7159;DHT22;63175;52.374;13.132;2022-12-22T11:51:17;8.90;99.90
7159;DHT22;63175;52.374;13.132;2022-12-22T11:54:05;8.90;99.90
7159;DHT22;63175;52.374;13.132;2022-12-22T11:56:39;8.90;99.90
7159;DHT22;63175;52.374;13.132;2022-12-22T11:59:29;8.90;99.90
7159;DHT22;63175;52.374;13.132;2022-12-22T12:02:22;8.90;99.90
7159;DHT22;63175;52.374;13.132;2022-12-22T12:07:45;9.00;99.90
7159;DHT22;63175;52.374;13.132;2022-12-22T12:10:17;9.00;99.90
7159;DHT22;63175;52.374;13.132;2022-12-22T12:12:52;9.00;99.90
7159;DHT22;63175;52.374;13.132;2022-12-22T12:15:27;9.00;99.90
7159;DHT22;63175;52.374;13.132;2022-12-22T12:24:01;9.10;99.90
7159;DHT22;63175;52.374;13.132;2022-12-22T12:26:31;9.10;99.90
7159;DHT22;63175;52.374;13.132;2022-12-22T12:29:09;9.10;99.90
7159;DHT22;63175;52.374;13.132;2022-12-22T12:31:42;9.20;99.90
7159;DHT22;63175;52.374;13.132;2022-12-22T12:34:14;9.20;99.90
7159;DHT22;63175;52.374;13.132;2022-12-22T12:36:46;9.20;99.90
7159;DHT22;63175;52.374;13.132;2022-12-22T12:39:20;9.30;99.90
7159;DHT22;63175;52.374;13.132;2022-12-22T12:41:57;9.30;99.90
7159;DHT22;63175;52.374;13.132;2022-12-22T12:44:30;9.30;99.90
7159;DHT22;63175;52.374;13.132;2022-12-22T12:47:06;9.30;99.90
7159;DHT22;63175;52.374;13.132;2022-12-22T12:53:12;9.40;99.90
7159;DHT22;63175;52.374;13.132;2022-12-22T12:58:52;9.40;99.90
7159;DHT22;63175;52.374;13.132;2022-12-22T13:01:54;9.40;99.90
7159;DHT22;63175;52.374;13.132;2022-12-22T13:05:00;9.40;99.90
7159;DHT22;63175;52.374;13.132;2022-12-22T13:10:36;9.40;99.90
7159;DHT22;63175;52.374;13.132;2022-12-22T13:13:04;9.40;99.90
7159;DHT22;63175;52.374;13.132;2022-12-22T13:15:33;9.40;99.90
7159;DHT22;63175;52.374;13.132;2022-12-22T13:18:01;9.40;99.90
7159;DHT22;63175;52.374;13.132;2022-12-22T13:20:31;9.40;99.90
7159;DHT22;63175;52.374;13.132;2022-12-22T13:23:02;9.40;99.90
7159;DHT22;63175;52.374;13.132;2022-12-22T13:25:38;9.40;99.90
7159;DHT22;63175;52.374;13.132;2022-12-22T13:28:11;9.40;99.90
7159;DHT22;63175;52.374;13.132;2022-12-22T13:30:41;9.40;99.90
7159;DHT22;63175;52.374;13.132;2022-12-22T13:33:11;9.40;99.90
7159;DHT22;63175;52.374;13.132;2022-12-22T13:35:43;9.40;99.90
7159;DHT22;63175;52.374;13.132;2022-12-22T13:38:25;9.40;99.90
7159;DHT22;63175;52.374;13.132;2022-12-22T13:40:54;9.40;99.90
7159;DHT22;63175;52.374;13.132;2022-12-22T13:43:22;9.40;99.90
7159;DHT22;63175;52.374;13.132;2022-12-22T13:45:51;9.40;99.90
7159;DHT22;63175;52.374;13.132;2022-12-22T13:48:21;9.40;99.90
7159;DHT22;63175;52.374;13.132;2022-12-22T13:50:51;9.40;99.90
7159;DHT22;63175;52.374;13.132;2022-12-22T13:53:24;9.40;99.90
7159;DHT22;63175;52.374;13.132;2022-12-22T13:55:53;9.40;99.90
7159;DHT22;63175;52.374;13.132;2022-12-22T13:58:25;9.40;99.90
7159;DHT22;63175;52.374;13.132;2022-12-22T14:01:14;9.40;99.90
7159;DHT22;63175;52.374;13.132;2022-12-22T14:03:46;9.40;99.90
7159;DHT22;63175;52.374;13.132;2022-12-22T14:06:26;9.40;99.90
7159;DHT22;63175;52.374;13.132;2022-12-22T14:08:53;9.40;99.90
7159;DHT22;63175;52.374;13.132;2022-12-22T14:11:29;9.40;99.90
7159;DHT22;63175;52.374;13.132;2022-12-22T14:13:56;9.40;99.90
7159;DHT22;63175;52.374;13.132;2022-12-22T14:16:23;9.40;99.90
7159;DHT22;63175;52.374;13.132;2022-12-22T14:18:51;9.40;99.90
7159;DHT22;63175;52.374;13.132;2022-12-22T14:21:18;9.40;99.90
7159;DHT22;63175;52.374;13.132;2022-12-22T14:23:46;9.40;99.90
7159;DHT22;63175;52.374;13.132;2022-12-22T14:26:17;9.40;99.90
7159;DHT22;63175;52.374;13.132;2022-12-22T14:28:49;9.40;99.90
7159;DHT22;63175;52.374;13.132;2022-12-22T14:31:17;9.40;99.90
7159;DHT22;63175;52.374;13.132;2022-12-22T14:33:51;9.40;99.90
7159;DHT22;63175;52.374;13.132;2022-12-22T14:36:20;9.40;99.90
7159;DHT22;63175;52.374;13.132;2022-12-22T14:38:51;9.40;99.90
7159;DHT22;63175;52.374;13.132;2022-12-22T14:41:23;9.40;99.90
7159;DHT22;63175;52.374;13.132;2022-12-22T14:44:17;9.30;99.90
7159;DHT22;63175;52.374;13.132;2022-12-22T14:46:44;9.40;99.90
7159;DHT22;63175;52.374;13.132;2022-12-22T14:49:16;9.30;99.90
7159;DHT22;63175;52.374;13.132;2022-12-22T14:51:52;9.30;99.90
7159;DHT22;63175;52.374;13.132;2022-12-22T14:54:24;9.30;99.90
7159;DHT22;63175;52.374;13.132;2022-12-22T14:56:59;9.30;99.90
7159;DHT22;63175;52.374;13.132;2022-12-22T14:59:28;9.30;99.90
7159;DHT22;63175;52.374;13.132;2022-12-22T15:02:00;9.30;99.90
7159;DHT22;63175;52.374;13.132;2022-12-22T15:04:28;9.30;99.90
7159;DHT22;63175;52.374;13.132;2022-12-22T15:07:14;9.30;99.90
7159;DHT22;63175;52.374;13.132;2022-12-22T15:09:42;9.30;99.90
7159;DHT22;63175;52.374;13.132;2022-12-22T15:12:11;9.20;99.90
7159;DHT22;63175;52.374;13.132;2022-12-22T15:14:38;9.20;99.90
7159;DHT22;63175;52.374;13.132;2022-12-22T15:17:14;9.20;99.90
7159;DHT22;63175;52.374;13.132;2022-12-22T15:19:42;9.20;99.90
7159;DHT22;63175;52.374;13.132;2022-12-22T15:22:11;9.20;99.90
7159;DHT22;63175;52.374;13.132;2022-12-22T15:24:38;9.20;99.90
7159;DHT22;63175;52.374;13.132;2022-12-22T15:27:06;9.20;99.90
7159;DHT22;63175;52.374;13.132;2022-12-22T15:29:33;9.20;99.90
7159;DHT22;63175;52.374;13.132;2022-12-22T15:31:59;9.20;99.90
7159;DHT22;63175;52.374;13.132;2022-12-22T15:34:28;9.20;99.90
7159;DHT22;63175;52.374;13.132;2022-12-22T15:36:56;9.20;99.90
7159;DHT22;63175;52.374;13.132;2022-12-22T15:39:23;9.20;99.90
7159;DHT22;63175;52.374;13.132;2022-12-22T15:41:50;9.20;99.90
7159;DHT22;63175;52.374;13.132;2022-12-22T15:44:18;9.20;99.90
7159;DHT22;63175;52.374;13.132;2022-12-22T15:46:51;9.10;99.90
7159;DHT22;63175;52.374;13.132;2022-12-22T15:49:22;9.10;99.90
7159;DHT22;63175;52.374;13.132;2022-12-22T15:51:52;9.20;99.90
7159;DHT22;63175;52.374;13.132;2022-12-22T15:54:20;9.20;99.90
7159;DHT22;63175;52.374;13.132;2022-12-22T15:56:49;9.10;99.90
7159;DHT22;63175;52.374;13.132;2022-12-22T15:59:21;9.10;99.90
7159;DHT22;63175;52.374;13.132;2022-12-22T16:01:50;9.10;99.90
7159;DHT22;63175;52.374;13.132;2022-12-22T16:04:17;9.10;99.90
7159;DHT22;63175;52.374;13.132;2022-12-22T16:06:44;9.10;99.90
7159;DHT22;63175;52.374;13.132;2022-12-22T16:09:17;9.00;99.90
7159;DHT22;63175;52.374;13.132;2022-12-22T16:11:46;9.00;99.90
7159;DHT22;63175;52.374;13.132;2022-12-22T16:14:14;9.00;99.90
7159;DHT22;63175;52.374;13.132;2022-12-22T16:16:43;9.00;99.90
7159;DHT22;63175;52.374;13.132;2022-12-22T16:19:13;9.00;99.90
7159;DHT22;63175;52.374;13.132;2022-12-22T16:21:42;9.00;99.90
7159;DHT22;63175;52.374;13.132;2022-12-22T16:24:18;9.00;99.90
7159;DHT22;63175;52.374;13.132;2022-12-22T16:26:46;8.90;99.90
7159;DHT22;63175;52.374;13.132;2022-12-22T16:29:14;9.00;99.90
7159;DHT22;63175;52.374;13.132;2022-12-22T16:31:42;9.00;99.90
7159;DHT22;63175;52.374;13.132;2022-12-22T16:34:10;8.90;99.90
7159;DHT22;63175;52.374;13.132;2022-12-22T16:36:37;8.90;99.90
7159;DHT22;63175;52.374;13.132;2022-12-22T16:39:04;8.90;99.90
7159;DHT22;63175;52.374;13.132;2022-12-22T16:41:31;8.80;99.90
7159;DHT22;63175;52.374;13.132;2022-12-22T16:43:59;8.80;99.90
7159;DHT22;63175;52.374;13.132;2022-12-22T16:46:27;8.80;99.90